Time,TemperatureF,DewpointF,PressureIn,WindDirection,WindDirectionDegrees,WindSpeedMPH,WindSpeedGustMPH,Humidity,HourlyPrecipIn,Conditions,Clouds,dailyrainin,SoftwareType,DateUTC
2013-04-20 00:01:00,63.5,61.8,29.57,West,280,2.0,6.0,94,0.06,,---,0.37,VWS V14.00,2013-04-20 04:01:00,
2013-04-20 00:02:00,63.5,62.0,29.57,West,274,2.0,6.0,95,0.06,,---,0.37,VWS V14.00,2013-04-20 04:02:00,
2013-04-20 00:08:00,62.7,60.0,29.59,NW,304,4.0,16.0,91,0.06,,---,0.01,VWS V14.00,2013-04-20 04:08:00,
2013-04-20 00:13:00,61.3,57.7,29.60,West,280,12.0,16.0,88,0.06,,---,0.01,VWS V14.00,2013-04-20 04:13:00,
2013-04-20 00:18:00,60.2,56.0,29.61,NW,309,22.0,22.0,86,0.06,,---,0.01,VWS V14.00,2013-04-20 04:18:00,
2013-04-20 00:23:00,57.4,51.6,29.62,NW,316,16.0,23.0,81,0.06,,---,0.01,VWS V14.00,2013-04-20 04:23:00,
2013-04-20 00:28:00,56.1,50.4,29.62,NNW,329,6.0,16.0,81,0.06,,---,0.01,VWS V14.00,2013-04-20 04:28:00,
2013-04-20 00:33:00,55.5,49.8,29.62,NNW,331,6.0,18.0,81,0.06,,---,0.01,VWS V14.00,2013-04-20 04:33:00,
2013-04-20 00:38:00,55.0,48.6,29.62,NE,46,8.0,17.0,79,0.05,,---,0.01,VWS V14.00,2013-04-20 04:38:00,
2013-04-20 00:43:00,54.5,47.5,29.61,West,280,3.0,16.0,77,0.04,,---,0.01,VWS V14.00,2013-04-20 04:43:00,
2013-04-20 00:48:00,54.2,47.2,29.61,NW,315,5.0,9.0,77,0.04,,---,0.01,VWS V14.00,2013-04-20 04:48:00,
2013-04-20 00:53:00,53.9,46.9,29.62,WNW,290,7.0,9.0,77,0.03,,---,0.01,VWS V14.00,2013-04-20 04:53:00,
2013-04-20 00:58:00,53.9,46.9,29.62,WNW,302,3.0,9.0,77,0.02,,---,0.01,VWS V14.00,2013-04-20 04:58:00,
2013-04-20 01:03:00,53.8,46.8,29.62,WNW,300,1.0,8.0,77,0.01,,---,0.01,VWS V14.00,2013-04-20 05:03:00,
2013-04-20 01:08:00,53.8,46.8,29.62,NW,312,2.0,5.0,77,0.01,,---,0.01,VWS V14.00,2013-04-20 05:08:00,
2013-04-20 01:13:00,53.7,46.7,29.62,WNW,294,1.0,4.0,77,0.01,,---,0.02,VWS V14.00,2013-04-20 05:13:00,
2013-04-20 01:18:00,53.6,47.3,29.62,WNW,294,2.0,4.0,79,0.01,,---,0.02,VWS V14.00,2013-04-20 05:18:00,
2013-04-20 01:23:00,53.4,47.4,29.62,WNW,302,1.0,2.0,80,0.01,,---,0.02,VWS V14.00,2013-04-20 05:23:00,
2013-04-20 01:28:00,53.3,47.3,29.62,WNW,286,0.0,0.0,80,0.01,,---,0.02,VWS V14.00,2013-04-20 05:28:00,
2013-04-20 01:34:00,53.2,47.9,29.64,West,264,2.0,3.0,82,0.01,,---,0.02,VWS V14.00,2013-04-20 05:34:00,
2013-04-20 01:39:00,53.0,47.7,29.64,WNW,294,3.0,3.0,82,0.01,,---,0.02,VWS V14.00,2013-04-20 05:39:00,
2013-04-20 01:44:00,53.0,47.7,29.65,West,261,0.0,2.0,82,0.01,,---,0.02,VWS V14.00,2013-04-20 05:44:00,
2013-04-20 01:49:00,53.0,47.3,29.63,North,352,0.0,0.0,81,0.01,,---,0.02,VWS V14.00,2013-04-20 05:49:00,
2013-04-20 01:54:00,53.1,47.4,29.62,West,276,0.0,0.0,81,0.01,,---,0.02,VWS V14.00,2013-04-20 05:54:00,
2013-04-20 01:59:00,53.0,48.0,29.61,West,280,0.0,3.0,83,0.02,,---,0.03,VWS V14.00,2013-04-20 05:59:00,
2013-04-20 02:04:00,52.7,47.7,29.62,WNW,291,2.0,4.0,83,0.02,,---,0.03,VWS V14.00,2013-04-20 06:04:00,
2013-04-20 02:09:00,52.5,47.8,29.62,West,268,3.0,3.0,84,0.02,,---,0.03,VWS V14.00,2013-04-20 06:09:00,
2013-04-20 02:14:00,52.3,47.9,29.61,WNW,283,2.0,2.0,85,0.02,,---,0.04,VWS V14.00,2013-04-20 06:14:00,
2013-04-20 02:19:00,52.1,48.0,29.60,WNW,291,0.0,2.0,86,0.02,,---,0.04,VWS V14.00,2013-04-20 06:19:00,
2013-04-20 02:24:00,51.9,48.2,29.60,WNW,286,2.0,2.0,87,0.02,,---,0.04,VWS V14.00,2013-04-20 06:24:00,
2013-04-20 02:29:00,51.8,48.4,29.61,West,266,0.0,3.0,88,0.02,,---,0.04,VWS V14.00,2013-04-20 06:29:00,
2013-04-20 02:34:00,51.6,48.5,29.61,NW,314,2.0,2.0,89,0.03,,---,0.05,VWS V14.00,2013-04-20 06:34:00,
2013-04-20 02:40:00,51.5,48.4,29.63,WNW,288,2.0,4.0,89,0.04,,---,0.06,VWS V14.00,2013-04-20 06:40:00,
2013-04-20 02:45:00,51.2,48.4,29.63,West,271,1.0,4.0,90,0.05,,---,0.07,VWS V14.00,2013-04-20 06:45:00,
2013-04-20 02:50:00,51.1,48.3,29.64,West,274,2.0,5.0,90,0.05,,---,0.07,VWS V14.00,2013-04-20 06:50:00,
2013-04-20 02:55:00,51.1,48.3,29.66,WSW,248,4.0,5.0,90,0.06,,---,0.08,VWS V14.00,2013-04-20 06:55:00,
2013-04-20 03:00:00,51.0,48.5,29.66,West,279,0.0,5.0,91,0.05,,---,0.08,VWS V14.00,2013-04-20 07:00:00,
2013-04-20 03:05:00,51.0,48.5,29.65,NW,304,5.0,7.0,91,0.06,,---,0.09,VWS V14.00,2013-04-20 07:05:00,
2013-04-20 03:10:00,50.9,48.4,29.64,SW,229,3.0,3.0,91,0.07,,---,0.10,VWS V14.00,2013-04-20 07:10:00,
2013-04-20 03:15:00,50.8,48.3,29.64,West,281,3.0,3.0,91,0.06,,---,0.10,VWS V14.00,2013-04-20 07:15:00,
2013-04-20 03:20:00,50.8,48.3,29.64,WNW,283,4.0,4.0,91,0.06,,---,0.10,VWS V14.00,2013-04-20 07:20:00,
2013-04-20 03:25:00,50.7,48.2,29.64,West,266,0.0,6.0,91,0.07,,---,0.11,VWS V14.00,2013-04-20 07:25:00,
2013-04-20 03:30:00,50.7,48.5,29.64,WNW,290,0.0,2.0,92,0.07,,---,0.11,VWS V14.00,2013-04-20 07:30:00,
2013-04-20 03:35:00,50.7,48.5,29.64,West,275,0.0,0.0,92,0.06,,---,0.11,VWS V14.00,2013-04-20 07:35:00,
2013-04-20 03:40:00,50.7,48.5,29.64,West,270,1.0,4.0,92,0.05,,---,0.11,VWS V14.00,2013-04-20 07:40:00,
2013-04-20 03:46:00,50.7,48.5,29.64,West,268,2.0,3.0,92,0.05,,---,0.12,VWS V14.00,2013-04-20 07:46:00,
2013-04-20 03:51:00,50.7,48.5,29.64,SW,224,0.0,4.0,92,0.05,,---,0.12,VWS V14.00,2013-04-20 07:51:00,
2013-04-20 03:56:00,50.8,48.8,29.64,West,266,0.0,0.0,93,0.05,,---,0.13,VWS V14.00,2013-04-20 07:56:00,
2013-04-20 04:01:00,50.7,48.8,29.65,West,267,1.0,3.0,93,0.05,,---,0.13,VWS V14.00,2013-04-20 08:01:00,
2013-04-20 04:06:00,50.8,48.8,29.65,West,267,0.0,2.0,93,0.04,,---,0.13,VWS V14.00,2013-04-20 08:06:00,
2013-04-20 04:11:00,50.8,48.8,29.65,WSW,253,1.0,2.0,93,0.03,,---,0.13,VWS V14.00,2013-04-20 08:11:00,
2013-04-20 04:16:00,50.9,49.0,29.66,WNW,283,1.0,3.0,93,0.03,,---,0.13,VWS V14.00,2013-04-20 08:16:00,
2013-04-20 04:21:00,51.0,49.0,29.66,West,266,1.0,2.0,93,0.03,,---,0.13,VWS V14.00,2013-04-20 08:21:00,
2013-04-20 04:26:00,51.1,49.2,29.67,West,266,0.0,3.0,93,0.03,,---,0.13,VWS V14.00,2013-04-20 08:26:00,
2013-04-20 04:31:00,51.2,49.2,29.66,West,276,3.0,6.0,93,0.02,,---,0.13,VWS V14.00,2013-04-20 08:31:00,
2013-04-20 04:36:00,51.2,49.0,29.66,WNW,284,7.0,9.0,92,0.02,,---,0.13,VWS V14.00,2013-04-20 08:36:00,
2013-04-20 04:41:00,51.2,48.7,29.66,West,273,4.0,6.0,91,0.02,,---,0.13,VWS V14.00,2013-04-20 08:41:00,
2013-04-20 04:46:00,51.3,48.5,29.67,WSW,256,1.0,10.0,90,0.01,,---,0.13,VWS V14.00,2013-04-20 08:46:00,
2013-04-20 04:52:00,51.3,48.2,29.67,NW,309,5.0,12.0,89,0.01,,---,0.13,VWS V14.00,2013-04-20 08:52:00,
2013-04-20 04:57:00,51.3,47.6,29.67,WNW,291,6.0,10.0,87,0.00,,---,0.13,VWS V14.00,2013-04-20 08:57:00,
2013-04-20 05:02:00,51.2,47.2,29.68,NW,314,11.0,11.0,86,0.00,,---,0.13,VWS V14.00,2013-04-20 09:02:00,
2013-04-20 05:07:00,51.2,46.8,29.68,WNW,302,5.0,10.0,85,0.00,,---,0.13,VWS V14.00,2013-04-20 09:07:00,
2013-04-20 05:12:00,51.2,46.8,29.70,NW,307,6.0,12.0,85,0.00,,---,0.13,VWS V14.00,2013-04-20 09:12:00,
2013-04-20 05:17:00,51.1,46.4,29.71,WNW,298,9.0,11.0,84,0.00,,---,0.13,VWS V14.00,2013-04-20 09:17:00,
2013-04-20 05:22:00,51.1,46.4,29.71,NW,305,6.0,10.0,84,0.00,,---,0.13,VWS V14.00,2013-04-20 09:22:00,
2013-04-20 05:27:00,51.0,46.0,29.71,NW,326,5.0,12.0,83,0.00,,---,0.13,VWS V14.00,2013-04-20 09:27:00,
2013-04-20 05:32:00,51.0,46.0,29.72,West,271,6.0,13.0,83,0.00,,---,0.13,VWS V14.00,2013-04-20 09:32:00,
2013-04-20 05:37:00,50.9,45.6,29.72,NNW,330,5.0,12.0,82,0.00,,---,0.13,VWS V14.00,2013-04-20 09:37:00,
2013-04-20 05:42:00,50.8,44.9,29.73,NNW,333,6.0,13.0,80,0.00,,---,0.13,VWS V14.00,2013-04-20 09:42:00,
2013-04-20 05:47:00,50.7,44.4,29.73,NW,321,4.0,16.0,79,0.00,,---,0.13,VWS V14.00,2013-04-20 09:47:00,
2013-04-20 05:52:00,50.5,44.6,29.74,NW,316,6.0,17.0,80,0.00,,---,0.13,VWS V14.00,2013-04-20 09:52:00,
2013-04-20 05:58:00,50.4,43.5,29.73,ENE,73,5.0,10.0,77,0.00,,---,0.13,VWS V14.00,2013-04-20 09:58:00,
2013-04-20 06:03:00,50.3,43.0,29.74,NW,305,4.0,13.0,76,0.00,,---,0.13,VWS V14.00,2013-04-20 10:03:00,
2013-04-20 06:08:00,50.3,42.7,29.74,WNW,295,5.0,11.0,75,0.00,,---,0.13,VWS V14.00,2013-04-20 10:08:00,
2013-04-20 06:13:00,50.3,42.7,29.74,WNW,300,4.0,13.0,75,0.00,,---,0.13,VWS V14.00,2013-04-20 10:13:00,
2013-04-20 06:18:00,50.2,42.9,29.75,WSW,252,1.0,9.0,76,0.00,,---,0.13,VWS V14.00,2013-04-20 10:18:00,
2013-04-20 06:23:00,50.1,42.8,29.75,NW,305,1.0,9.0,76,0.00,,---,0.13,VWS V14.00,2013-04-20 10:23:00,
2013-04-20 06:28:00,50.0,43.1,29.75,West,278,1.0,6.0,77,0.00,,---,0.13,VWS V14.00,2013-04-20 10:28:00,
2013-04-20 06:33:00,50.0,43.4,29.76,NW,311,4.0,4.0,78,0.00,,---,0.13,VWS V14.00,2013-04-20 10:33:00,
2013-04-20 06:38:00,49.9,43.0,29.76,West,262,3.0,6.0,77,0.00,,---,0.13,VWS V14.00,2013-04-20 10:38:00,
2013-04-20 06:43:00,49.9,43.0,29.76,NW,310,1.0,6.0,77,0.00,,---,0.13,VWS V14.00,2013-04-20 10:43:00,
2013-04-20 06:48:00,49.9,43.0,29.76,NW,307,3.0,6.0,77,0.00,,---,0.13,VWS V14.00,2013-04-20 10:48:00,
2013-04-20 06:53:00,50.0,43.1,29.77,WNW,286,5.0,5.0,77,0.00,,---,0.13,VWS V14.00,2013-04-20 10:53:00,
2013-04-20 06:59:00,50.0,43.4,29.77,NW,311,4.0,5.0,78,0.00,,---,0.13,VWS V14.00,2013-04-20 10:59:00,
2013-04-20 07:04:00,50.1,43.2,29.78,WNW,295,0.0,2.0,77,0.00,,---,0.13,VWS V14.00,2013-04-20 11:04:00,
2013-04-20 07:09:00,50.1,43.5,29.78,WNW,302,2.0,4.0,78,0.00,,---,0.13,VWS V14.00,2013-04-20 11:09:00,
2013-04-20 07:14:00,50.2,42.9,29.78,WNW,286,4.0,6.0,76,0.00,,---,0.13,VWS V14.00,2013-04-20 11:14:00,
2013-04-20 07:19:00,50.3,43.4,29.78,West,275,3.0,3.0,77,0.00,,---,0.13,VWS V14.00,2013-04-20 11:19:00,
2013-04-20 07:24:00,50.4,42.8,29.78,West,259,3.0,7.0,75,0.00,,---,0.13,VWS V14.00,2013-04-20 11:24:00,
2013-04-20 07:29:00,50.5,42.5,29.78,West,259,7.0,7.0,74,0.00,,---,0.13,VWS V14.00,2013-04-20 11:29:00,
2013-04-20 07:34:00,50.6,43.0,29.78,WNW,287,0.0,3.0,75,0.00,,---,0.13,VWS V14.00,2013-04-20 11:34:00,
2013-04-20 07:39:00,50.6,42.3,29.79,West,264,4.0,8.0,73,0.00,,---,0.13,VWS V14.00,2013-04-20 11:39:00,
2013-04-20 07:44:00,50.8,42.1,29.79,West,262,2.0,4.0,72,0.00,,---,0.13,VWS V14.00,2013-04-20 11:44:00,
2013-04-20 07:49:00,50.9,41.8,29.79,WNW,290,4.0,7.0,71,0.00,,---,0.13,VWS V14.00,2013-04-20 11:49:00,
2013-04-20 07:54:00,51.0,41.9,29.79,NW,305,1.0,6.0,71,0.00,,---,0.13,VWS V14.00,2013-04-20 11:54:00,
2013-04-20 08:00:00,51.0,41.9,29.79,WSW,250,4.0,10.0,71,0.00,,---,0.13,VWS V14.00,2013-04-20 12:00:00,
2013-04-20 08:05:00,51.0,42.3,29.79,SSW,211,8.0,9.0,72,0.00,,---,0.13,VWS V14.00,2013-04-20 12:05:00,
2013-04-20 08:10:00,51.1,42.0,29.80,WNW,284,3.0,7.0,71,0.00,,---,0.13,VWS V14.00,2013-04-20 12:10:00,
2013-04-20 08:15:00,51.1,41.3,29.80,North,5,4.0,11.0,69,0.00,,---,0.13,VWS V14.00,2013-04-20 12:15:00,
2013-04-20 08:20:00,51.2,41.4,29.80,WNW,285,8.0,10.0,69,0.00,,---,0.13,VWS V14.00,2013-04-20 12:20:00,
2013-04-20 08:25:00,51.4,40.0,29.79,WSW,257,4.0,10.0,65,0.00,,---,0.13,VWS V14.00,2013-04-20 12:25:00,
2013-04-20 08:30:00,51.8,39.6,29.79,West,278,4.0,13.0,63,0.00,,---,0.13,VWS V14.00,2013-04-20 12:30:00,
2013-04-20 08:35:00,52.2,40.0,29.79,WSW,253,6.0,10.0,63,0.00,,---,0.13,VWS V14.00,2013-04-20 12:35:00,
2013-04-20 08:40:00,52.4,40.2,29.80,SW,217,10.0,16.0,63,0.00,,---,0.13,VWS V14.00,2013-04-20 12:40:00,
2013-04-20 08:45:00,52.1,37.8,29.80,WNW,297,5.0,16.0,58,0.00,,---,0.13,VWS V14.00,2013-04-20 12:45:00,
2013-04-20 08:50:00,52.0,38.1,29.80,West,273,13.0,14.0,59,0.00,,---,0.13,VWS V14.00,2013-04-20 12:50:00,
2013-04-20 08:56:00,51.8,37.1,29.80,NNW,329,10.0,13.0,57,0.00,,---,0.13,VWS V14.00,2013-04-20 12:56:00,
2013-04-20 09:01:00,52.0,37.7,29.80,North,354,6.0,12.0,58,0.00,,---,0.13,VWS V14.00,2013-04-20 13:01:00,
2013-04-20 09:06:00,51.9,36.7,29.80,West,260,6.0,12.0,56,0.00,,---,0.13,VWS V14.00,2013-04-20 13:06:00,
2013-04-20 09:11:00,51.8,37.1,29.81,NW,312,8.0,17.0,57,0.00,,---,0.13,VWS V14.00,2013-04-20 13:11:00,
2013-04-20 09:16:00,51.9,37.6,29.81,WNW,287,11.0,12.0,58,0.00,,---,0.13,VWS V14.00,2013-04-20 13:16:00,
2013-04-20 09:21:00,51.8,36.2,29.81,NW,305,8.0,13.0,55,0.00,,---,0.13,VWS V14.00,2013-04-20 13:21:00,
2013-04-20 09:26:00,51.7,35.6,29.81,NW,315,2.0,19.0,54,0.00,,---,0.13,VWS V14.00,2013-04-20 13:26:00,
2013-04-20 09:31:00,51.6,35.0,29.82,WNW,295,4.0,14.0,53,0.00,,---,0.13,VWS V14.00,2013-04-20 13:31:00,
2013-04-20 09:36:00,51.4,34.4,29.81,WSW,257,8.0,17.0,52,0.00,,---,0.13,VWS V14.00,2013-04-20 13:36:00,
2013-04-20 09:41:00,51.4,34.4,29.82,NW,314,8.0,12.0,52,0.00,,---,0.13,VWS V14.00,2013-04-20 13:41:00,
2013-04-20 09:46:00,51.5,33.5,29.82,WNW,293,8.0,15.0,50,0.00,,---,0.13,VWS V14.00,2013-04-20 13:46:00,
2013-04-20 09:51:00,51.6,33.6,29.83,WNW,294,10.0,16.0,50,0.00,,---,0.13,VWS V14.00,2013-04-20 13:51:00,
2013-04-20 09:57:00,51.8,33.8,29.83,WNW,288,8.0,12.0,50,0.00,,---,0.13,VWS V14.00,2013-04-20 13:57:00,
2013-04-20 10:02:00,52.0,32.4,29.84,WNW,295,9.0,12.0,47,0.00,,---,0.13,VWS V14.00,2013-04-20 14:02:00,
2013-04-20 10:07:00,52.0,32.4,29.84,WNW,295,6.0,14.0,47,0.00,,---,0.13,VWS V14.00,2013-04-20 14:07:00,
2013-04-20 10:12:00,51.9,31.8,29.85,West,264,8.0,16.0,46,0.00,,---,0.13,VWS V14.00,2013-04-20 14:12:00,
2013-04-20 10:17:00,52.1,32.5,29.85,NW,307,3.0,12.0,47,0.00,,---,0.13,VWS V14.00,2013-04-20 14:17:00,
2013-04-20 10:22:00,52.3,33.2,29.85,NW,319,5.0,15.0,48,0.00,,---,0.13,VWS V14.00,2013-04-20 14:22:00,
2013-04-20 10:27:00,52.3,32.2,29.86,West,280,5.0,16.0,46,0.00,,---,0.13,VWS V14.00,2013-04-20 14:27:00,
2013-04-20 10:32:00,52.4,31.7,29.86,WNW,299,5.0,14.0,45,0.00,,---,0.13,VWS V14.00,2013-04-20 14:32:00,
2013-04-20 10:37:00,52.4,30.6,29.87,West,277,9.0,11.0,43,0.00,,---,0.13,VWS V14.00,2013-04-20 14:37:00,
2013-04-20 10:42:00,52.2,30.4,29.87,SW,226,5.0,15.0,43,0.00,,---,0.13,VWS V14.00,2013-04-20 14:42:00,
2013-04-20 10:47:00,52.5,32.3,29.87,NNE,16,1.0,11.0,46,0.00,,---,0.13,VWS V14.00,2013-04-20 14:47:00,
2013-04-20 10:53:00,52.4,30.6,29.88,NW,308,8.0,19.0,43,0.00,,---,0.13,VWS V14.00,2013-04-20 14:53:00,
2013-04-20 10:58:00,52.3,31.6,29.88,West,281,5.0,15.0,45,0.00,,---,0.13,VWS V14.00,2013-04-20 14:58:00,
2013-04-20 11:03:00,52.2,30.4,29.89,WSW,245,11.0,15.0,43,0.00,,---,0.13,VWS V14.00,2013-04-20 15:03:00,
2013-04-20 11:08:00,51.9,31.2,29.89,WNW,294,4.0,14.0,45,0.00,,---,0.13,VWS V14.00,2013-04-20 15:08:00,
2013-04-20 11:13:00,52.1,31.4,29.89,WSW,255,4.0,10.0,45,0.00,,---,0.13,VWS V14.00,2013-04-20 15:13:00,
2013-04-20 11:18:00,52.2,32.1,29.89,South,191,2.0,14.0,46,0.00,,---,0.13,VWS V14.00,2013-04-20 15:18:00,
2013-04-20 11:23:00,51.9,31.2,29.89,West,274,13.0,16.0,45,0.00,,---,0.13,VWS V14.00,2013-04-20 15:23:00,
2013-04-20 11:28:00,51.8,30.6,29.89,WSW,247,8.0,16.0,44,0.00,,---,0.13,VWS V14.00,2013-04-20 15:28:00,
2013-04-20 11:33:00,51.8,30.0,29.89,West,273,13.0,18.0,43,0.00,,---,0.13,VWS V14.00,2013-04-20 15:33:00,
2013-04-20 11:38:00,51.7,29.4,29.89,West,281,10.0,20.0,42,0.00,,---,0.13,VWS V14.00,2013-04-20 15:38:00,
2013-04-20 11:43:00,51.4,29.7,29.89,WNW,299,10.0,17.0,43,0.00,,---,0.13,VWS V14.00,2013-04-20 15:43:00,
2013-04-20 11:48:00,51.4,29.7,29.90,WNW,298,4.0,17.0,43,0.00,,---,0.13,VWS V14.00,2013-04-20 15:48:00,
2013-04-20 11:53:00,51.7,29.9,29.89,NW,310,4.0,16.0,43,0.00,,---,0.13,VWS V14.00,2013-04-20 15:53:00,
2013-04-20 11:58:00,51.6,30.4,29.89,NNE,18,5.0,15.0,44,0.00,,---,0.13,VWS V14.00,2013-04-20 15:58:00,
2013-04-20 12:03:00,51.8,30.6,29.89,WNW,298,5.0,14.0,44,0.00,,---,0.13,VWS V14.00,2013-04-20 16:03:00,
2013-04-20 12:08:00,52.0,31.9,29.90,NW,305,5.0,11.0,46,0.00,,---,0.13,VWS V14.00,2013-04-20 16:08:00,
2013-04-20 12:13:00,52.4,31.1,29.89,West,274,13.0,14.0,44,0.00,,---,0.13,VWS V14.00,2013-04-20 16:13:00,
2013-04-20 12:18:00,52.4,31.7,29.89,West,280,8.0,14.0,45,0.00,,---,0.13,VWS V14.00,2013-04-20 16:18:00,
2013-04-20 12:23:00,52.7,32.0,29.89,SW,232,10.0,12.0,45,0.00,,---,0.13,VWS V14.00,2013-04-20 16:23:00,
2013-04-20 12:28:00,52.6,31.9,29.89,NW,307,4.0,16.0,45,0.00,,---,0.13,VWS V14.00,2013-04-20 16:28:00,
2013-04-20 12:33:00,52.7,31.4,29.89,WNW,300,9.0,13.0,44,0.00,,---,0.13,VWS V14.00,2013-04-20 16:33:00,
2013-04-20 12:38:00,53.0,32.2,29.89,NW,322,7.0,16.0,45,0.00,,---,0.13,VWS V14.00,2013-04-20 16:38:00,
2013-04-20 12:43:00,53.1,32.3,29.89,West,269,5.0,18.0,45,0.00,,---,0.13,VWS V14.00,2013-04-20 16:43:00,
2013-04-20 12:48:00,53.4,32.6,29.88,NW,310,6.0,18.0,45,0.00,,---,0.13,VWS V14.00,2013-04-20 16:48:00,
2013-04-20 12:53:00,53.9,32.5,29.88,SSW,211,4.0,19.0,44,0.00,,---,0.13,VWS V14.00,2013-04-20 16:53:00,
2013-04-20 12:58:00,54.3,33.4,29.87,WNW,300,5.0,12.0,45,0.00,,---,0.13,VWS V14.00,2013-04-20 16:58:00,
2013-04-20 13:03:00,55.1,33.0,29.87,West,275,8.0,19.0,43,0.00,,---,0.13,VWS V14.00,2013-04-20 17:03:00,
2013-04-20 13:08:00,54.9,32.3,29.87,NW,307,8.0,24.0,42,0.00,,---,0.13,VWS V14.00,2013-04-20 17:08:00,
2013-04-20 13:13:00,54.7,32.1,29.87,West,271,8.0,14.0,42,0.00,,---,0.13,VWS V14.00,2013-04-20 17:13:00,
2013-04-20 13:18:00,55.0,32.3,29.87,NNW,330,9.0,22.0,42,0.00,,---,0.13,VWS V14.00,2013-04-20 17:18:00,
2013-04-20 13:23:00,55.5,31.6,29.88,NW,311,10.0,13.0,40,0.00,,---,0.13,VWS V14.00,2013-04-20 17:23:00,
2013-04-20 13:28:00,56.0,32.0,29.87,WNW,300,20.0,20.0,40,0.00,,---,0.13,VWS V14.00,2013-04-20 17:28:00,
2013-04-20 13:33:00,56.7,33.3,29.87,WSW,246,13.0,20.0,41,0.00,,---,0.13,VWS V14.00,2013-04-20 17:33:00,
2013-04-20 13:38:00,56.9,32.2,29.87,NW,320,5.0,20.0,39,0.00,,---,0.13,VWS V14.00,2013-04-20 17:38:00,
2013-04-20 13:43:00,57.1,31.1,29.87,West,271,5.0,25.0,37,0.00,,---,0.13,VWS V14.00,2013-04-20 17:43:00,
2013-04-20 13:48:00,56.8,30.8,29.87,NW,316,11.0,24.0,37,0.00,,---,0.13,VWS V14.00,2013-04-20 17:48:00,
2013-04-20 13:53:00,56.9,30.9,29.87,WNW,292,8.0,18.0,37,0.00,,---,0.13,VWS V14.00,2013-04-20 17:53:00,
2013-04-20 13:58:00,57.1,31.1,29.87,WNW,298,8.0,22.0,37,0.00,,---,0.13,VWS V14.00,2013-04-20 17:58:00,
2013-04-20 14:03:00,57.5,31.5,29.87,NW,307,9.0,16.0,37,0.00,,---,0.13,VWS V14.00,2013-04-20 18:03:00,
2013-04-20 14:08:00,57.7,31.6,29.87,West,265,11.0,19.0,37,0.00,,---,0.13,VWS V14.00,2013-04-20 18:08:00,
2013-04-20 14:13:00,57.5,31.5,29.88,NW,304,12.0,22.0,37,0.00,,---,0.13,VWS V14.00,2013-04-20 18:13:00,
2013-04-20 14:18:00,57.4,32.0,29.88,NNW,342,9.0,18.0,38,0.00,,---,0.13,VWS V14.00,2013-04-20 18:18:00,
2013-04-20 14:23:00,57.8,31.7,29.87,WSW,238,4.0,22.0,37,0.00,,---,0.13,VWS V14.00,2013-04-20 18:23:00,
2013-04-20 14:28:00,57.7,31.0,29.87,WNW,286,5.0,13.0,36,0.00,,---,0.13,VWS V14.00,2013-04-20 18:28:00,
2013-04-20 14:33:00,58.0,31.2,29.87,NW,311,16.0,19.0,36,0.00,,---,0.13,VWS V14.00,2013-04-20 18:33:00,
2013-04-20 14:38:00,58.4,31.6,29.87,WSW,239,9.0,20.0,36,0.00,,---,0.13,VWS V14.00,2013-04-20 18:38:00,
2013-04-20 14:43:00,58.3,31.5,29.87,NW,312,9.0,21.0,36,0.00,,---,0.13,VWS V14.00,2013-04-20 18:43:00,
2013-04-20 14:48:00,58.3,30.8,29.87,North,358,17.0,17.0,35,0.00,,---,0.13,VWS V14.00,2013-04-20 18:48:00,
2013-04-20 14:53:00,57.9,30.4,29.88,WNW,295,7.0,20.0,35,0.00,,---,0.13,VWS V14.00,2013-04-20 18:53:00,
2013-04-20 14:58:00,57.8,31.0,29.88,West,278,6.0,16.0,36,0.00,,---,0.13,VWS V14.00,2013-04-20 18:58:00,
2013-04-20 15:03:00,58.1,30.6,29.88,WNW,291,13.0,13.0,35,0.00,,---,0.13,VWS V14.00,2013-04-20 19:03:00,
2013-04-20 15:08:00,58.9,32.0,29.87,NW,307,7.0,7.0,36,0.00,,---,0.13,VWS V14.00,2013-04-20 19:08:00,
2013-04-20 15:13:00,58.9,30.6,29.88,NW,317,13.0,14.0,34,0.00,,---,0.13,VWS V14.00,2013-04-20 19:13:00,
2013-04-20 15:19:00,58.3,30.1,29.88,NW,314,10.0,11.0,34,0.00,,---,0.13,VWS V14.00,2013-04-20 19:19:00,
2013-04-20 15:24:00,58.2,30.0,29.88,WSW,251,11.0,16.0,34,0.00,,---,0.13,VWS V14.00,2013-04-20 19:24:00,
2013-04-20 15:29:00,58.1,30.6,29.88,NW,316,8.0,8.0,35,0.00,,---,0.13,VWS V14.00,2013-04-20 19:29:00,
2013-04-20 15:34:00,59.0,30.0,29.88,West,273,7.0,8.0,33,0.00,,---,0.13,VWS V14.00,2013-04-20 19:34:00,
2013-04-20 15:39:00,59.0,30.0,29.89,WNW,298,7.0,16.0,33,0.00,,---,0.13,VWS V14.00,2013-04-20 19:39:00,
2013-04-20 15:44:00,58.6,29.6,29.89,NW,307,12.0,12.0,33,0.00,,---,0.13,VWS V14.00,2013-04-20 19:44:00,
2013-04-20 15:49:00,58.5,29.5,29.89,NNW,348,14.0,17.0,33,0.00,,---,0.13,VWS V14.00,2013-04-20 19:49:00,
2013-04-20 15:54:00,58.9,29.1,29.88,WNW,300,12.0,12.0,32,0.00,,---,0.13,VWS V14.00,2013-04-20 19:54:00,
2013-04-20 15:59:00,59.0,28.4,29.89,NNW,345,6.0,13.0,31,0.00,,---,0.13,VWS V14.00,2013-04-20 19:59:00,
2013-04-20 16:04:00,59.2,28.6,29.89,WNW,293,13.0,19.0,31,0.00,,---,0.13,VWS V14.00,2013-04-20 20:04:00,
2013-04-20 16:09:00,59.2,28.6,29.89,WNW,287,7.0,14.0,31,0.00,,---,0.13,VWS V14.00,2013-04-20 20:09:00,
2013-04-20 16:14:00,59.2,29.4,29.90,West,260,8.0,17.0,32,0.00,,---,0.13,VWS V14.00,2013-04-20 20:14:00,
2013-04-20 16:19:00,59.2,28.6,29.90,NW,323,8.0,16.0,31,0.00,,---,0.13,VWS V14.00,2013-04-20 20:19:00,
2013-04-20 16:24:00,59.4,28.8,29.90,WNW,295,7.0,15.0,31,0.00,,---,0.13,VWS V14.00,2013-04-20 20:24:00,
2013-04-20 16:29:00,59.3,27.9,29.90,SW,233,6.0,16.0,30,0.00,,---,0.13,VWS V14.00,2013-04-20 20:29:00,
2013-04-20 16:35:00,59.3,28.7,29.90,WNW,291,8.0,17.0,31,0.00,,---,0.13,VWS V14.00,2013-04-20 20:35:00,
2013-04-20 16:40:00,59.0,29.2,29.91,North,355,9.0,11.0,32,0.00,,---,0.13,VWS V14.00,2013-04-20 20:40:00,
2013-04-20 16:45:00,59.1,28.5,29.90,NW,317,6.0,16.0,31,0.00,,---,0.13,VWS V14.00,2013-04-20 20:45:00,
2013-04-20 16:50:00,59.9,29.2,29.91,West,266,2.0,11.0,31,0.00,,---,0.13,VWS V14.00,2013-04-20 20:50:00,
2013-04-20 16:55:00,60.0,28.5,29.91,NW,307,7.0,13.0,30,0.00,,---,0.13,VWS V14.00,2013-04-20 20:55:00,
2013-04-20 17:00:00,59.9,28.4,29.91,WNW,293,8.0,14.0,30,0.00,,---,0.13,VWS V14.00,2013-04-20 21:00:00,
2013-04-20 17:05:00,60.2,28.7,29.92,NW,315,7.0,13.0,30,0.00,,---,0.13,VWS V14.00,2013-04-20 21:05:00,
2013-04-20 17:10:00,59.4,28.0,29.92,WNW,300,7.0,14.0,30,0.00,,---,0.13,VWS V14.00,2013-04-20 21:10:00,
2013-04-20 17:15:00,59.9,27.6,29.92,WNW,300,8.0,12.0,29,0.00,,---,0.13,VWS V14.00,2013-04-20 21:15:00,
2013-04-20 17:20:00,59.6,27.3,29.92,WNW,296,12.0,15.0,29,0.00,,---,0.13,VWS V14.00,2013-04-20 21:20:00,
2013-04-20 17:25:00,59.4,28.8,29.93,NW,309,6.0,14.0,31,0.00,,---,0.13,VWS V14.00,2013-04-20 21:25:00,
2013-04-20 17:30:00,58.9,27.5,29.93,NNW,328,6.0,13.0,30,0.00,,---,0.13,VWS V14.00,2013-04-20 21:30:00,
2013-04-20 17:36:00,58.4,27.9,29.93,WSW,253,5.0,12.0,31,0.00,,---,0.13,VWS V14.00,2013-04-20 21:36:00,
2013-04-20 17:41:00,58.3,27.8,29.93,NW,315,3.0,9.0,31,0.00,,---,0.13,VWS V14.00,2013-04-20 21:41:00,
2013-04-20 17:46:00,58.7,28.2,29.93,North,354,3.0,6.0,31,0.00,,---,0.13,VWS V14.00,2013-04-20 21:46:00,
2013-04-20 17:51:00,59.3,28.7,29.94,WNW,285,4.0,11.0,31,0.00,,---,0.13,VWS V14.00,2013-04-20 21:51:00,
2013-04-20 17:56:00,59.6,28.1,29.94,NNW,329,7.0,7.0,30,0.00,,---,0.13,VWS V14.00,2013-04-20 21:56:00,
2013-04-20 18:01:00,59.7,28.2,29.94,West,266,4.0,10.0,30,0.00,,---,0.13,VWS V14.00,2013-04-20 22:01:00,
2013-04-20 18:06:00,59.6,28.1,29.95,NW,310,8.0,9.0,30,0.00,,---,0.13,VWS V14.00,2013-04-20 22:06:00,
2013-04-20 18:11:00,59.2,27.8,29.95,West,267,9.0,10.0,30,0.00,,---,0.13,VWS V14.00,2013-04-20 22:11:00,
2013-04-20 18:16:00,58.5,26.4,29.96,WNW,285,3.0,16.0,29,0.00,,---,0.13,VWS V14.00,2013-04-20 22:16:00,
2013-04-20 18:21:00,58.0,26.8,29.96,WSW,257,9.0,12.0,30,0.00,,---,0.13,VWS V14.00,2013-04-20 22:21:00,
2013-04-20 18:26:00,57.6,27.2,29.96,NW,307,7.0,16.0,31,0.00,,---,0.13,VWS V14.00,2013-04-20 22:26:00,
2013-04-20 18:31:00,57.8,27.4,29.96,WNW,290,6.0,13.0,31,0.00,,---,0.13,VWS V14.00,2013-04-20 22:31:00,
2013-04-20 18:37:00,57.9,27.5,29.96,NW,315,6.0,11.0,31,0.00,,---,0.13,VWS V14.00,2013-04-20 22:37:00,
2013-04-20 18:42:00,58.1,26.9,29.96,WNW,297,4.0,10.0,30,0.00,,---,0.13,VWS V14.00,2013-04-20 22:42:00,
2013-04-20 18:47:00,57.6,26.4,29.97,WNW,290,8.0,13.0,30,0.00,,---,0.13,VWS V14.00,2013-04-20 22:47:00,
2013-04-20 18:52:00,57.6,27.2,29.97,NW,314,9.0,13.0,31,0.00,,---,0.13,VWS V14.00,2013-04-20 22:52:00,
2013-04-20 18:57:00,57.4,26.2,29.98,NW,305,14.0,16.0,30,0.00,,---,0.13,VWS V14.00,2013-04-20 22:57:00,
2013-04-20 19:02:00,56.9,26.6,29.98,WNW,300,5.0,16.0,31,0.00,,---,0.13,VWS V14.00,2013-04-20 23:02:00,
2013-04-20 19:07:00,56.9,26.6,29.98,NW,307,4.0,13.0,31,0.00,,---,0.13,VWS V14.00,2013-04-20 23:07:00,
2013-04-20 19:12:00,56.6,27.1,29.99,NW,307,6.0,12.0,32,0.00,,---,0.13,VWS V14.00,2013-04-20 23:12:00,
2013-04-20 19:17:00,56.4,26.9,29.99,WSW,244,10.0,12.0,32,0.00,,---,0.13,VWS V14.00,2013-04-20 23:17:00,
2013-04-20 19:22:00,56.2,26.8,29.99,WSW,250,6.0,10.0,32,0.00,,---,0.13,VWS V14.00,2013-04-20 23:22:00,
2013-04-20 19:27:00,55.9,27.2,30.00,NW,307,3.0,12.0,33,0.00,,---,0.13,VWS V14.00,2013-04-20 23:27:00,
2013-04-20 19:32:00,55.7,27.1,30.00,NW,309,2.0,12.0,33,0.00,,---,0.13,VWS V14.00,2013-04-20 23:32:00,
2013-04-20 19:38:00,55.5,27.6,30.00,NW,309,1.0,13.0,34,0.00,,---,0.13,VWS V14.00,2013-04-20 23:38:00,
2013-04-20 19:43:00,55.3,27.4,30.01,WSW,252,5.0,14.0,34,0.00,,---,0.13,VWS V14.00,2013-04-20 23:43:00,
2013-04-20 19:48:00,55.0,27.9,30.01,WSW,238,2.0,10.0,35,0.00,,---,0.13,VWS V14.00,2013-04-20 23:48:00,
2013-04-20 19:53:00,54.8,27.7,30.02,WNW,292,5.0,9.0,35,0.00,,---,0.13,VWS V14.00,2013-04-20 23:53:00,
2013-04-20 19:58:00,54.8,27.0,30.02,WNW,297,2.0,13.0,34,0.00,,---,0.13,VWS V14.00,2013-04-20 23:58:00,
2013-04-20 20:03:00,54.7,26.9,30.03,WNW,284,2.0,7.0,34,0.00,,---,0.13,VWS V14.00,2013-04-21 00:03:00,
2013-04-20 20:08:00,54.7,26.9,30.03,WNW,301,4.0,16.0,34,0.00,,---,0.13,VWS V14.00,2013-04-21 00:08:00,
2013-04-20 20:13:00,54.6,26.8,30.03,NW,314,7.0,9.0,34,0.00,,---,0.13,VWS V14.00,2013-04-21 00:13:00,
2013-04-20 20:18:00,54.4,27.3,30.04,NNW,330,3.0,9.0,35,0.00,,---,0.13,VWS V14.00,2013-04-21 00:18:00,
2013-04-20 20:23:00,54.3,27.2,30.04,NNW,329,2.0,8.0,35,0.00,,---,0.13,VWS V14.00,2013-04-21 00:23:00,
2013-04-20 20:28:00,54.2,27.2,30.05,NW,305,4.0,10.0,35,0.00,,---,0.13,VWS V14.00,2013-04-21 00:28:00,
2013-04-20 20:33:00,54.0,27.7,30.05,NW,307,4.0,7.0,36,0.00,,---,0.13,VWS V14.00,2013-04-21 00:33:00,
2013-04-20 20:38:00,53.9,27.6,30.06,NW,326,5.0,8.0,36,0.00,,---,0.13,VWS V14.00,2013-04-21 00:38:00,
2013-04-20 20:43:00,53.8,27.5,30.06,NW,310,7.0,10.0,36,0.00,,---,0.13,VWS V14.00,2013-04-21 00:43:00,
2013-04-20 20:48:00,53.8,27.5,30.07,North,349,6.0,9.0,36,0.00,,---,0.13,VWS V14.00,2013-04-21 00:48:00,
2013-04-20 20:53:00,53.7,28.1,30.07,NW,323,8.0,8.0,37,0.00,,---,0.13,VWS V14.00,2013-04-21 00:53:00,
2013-04-20 20:58:00,53.4,27.1,30.08,NW,318,6.0,16.0,36,0.00,,---,0.13,VWS V14.00,2013-04-21 00:58:00,
2013-04-20 21:03:00,53.2,27.0,30.08,NW,312,14.0,17.0,36,0.00,,---,0.13,VWS V14.00,2013-04-21 01:03:00,
2013-04-20 21:08:00,53.1,26.9,30.09,NW,322,4.0,19.0,36,0.00,,---,0.13,VWS V14.00,2013-04-21 01:08:00,
2013-04-20 21:13:00,52.9,27.4,30.10,NNW,328,4.0,15.0,37,0.00,,---,0.13,VWS V14.00,2013-04-21 01:13:00,
2013-04-20 21:18:00,52.8,27.3,30.10,WNW,302,5.0,10.0,37,0.00,,---,0.13,VWS V14.00,2013-04-21 01:18:00,
2013-04-20 21:23:00,52.6,27.1,30.10,NNW,335,7.0,13.0,37,0.00,,---,0.13,VWS V14.00,2013-04-21 01:23:00,
2013-04-20 21:28:00,52.3,26.8,30.11,NNW,340,6.0,18.0,37,0.00,,---,0.13,VWS V14.00,2013-04-21 01:28:00,
2013-04-20 21:33:00,52.0,27.2,30.11,NNW,344,9.0,19.0,38,0.00,,---,0.13,VWS V14.00,2013-04-21 01:33:00,
2013-04-20 21:38:00,51.8,27.0,30.12,WNW,295,8.0,16.0,38,0.00,,---,0.13,VWS V14.00,2013-04-21 01:38:00,
2013-04-20 21:43:00,51.5,27.4,30.12,NW,312,6.0,14.0,39,0.00,,---,0.13,VWS V14.00,2013-04-21 01:43:00,
2013-04-20 21:48:00,51.3,27.2,30.12,NNW,330,4.0,10.0,39,0.00,,---,0.13,VWS V14.00,2013-04-21 01:48:00,
2013-04-20 21:53:00,51.2,27.7,30.13,NNW,336,9.0,12.0,40,0.00,,---,0.13,VWS V14.00,2013-04-21 01:53:00,
2013-04-20 21:58:00,50.9,28.1,30.14,NW,319,9.0,17.0,41,0.00,,---,0.13,VWS V14.00,2013-04-21 01:58:00,
2013-04-20 22:03:00,50.6,28.4,30.14,NNE,14,13.0,14.0,42,0.00,,---,0.13,VWS V14.00,2013-04-21 02:03:00,
2013-04-20 22:08:00,50.3,28.7,30.14,North,6,8.0,14.0,43,0.00,,---,0.13,VWS V14.00,2013-04-21 02:08:00,
2013-04-20 22:13:00,50.1,28.5,30.14,NW,323,9.0,17.0,43,0.00,,---,0.13,VWS V14.00,2013-04-21 02:13:00,
2013-04-20 22:18:00,49.9,28.3,30.15,NNW,331,10.0,15.0,43,0.00,,---,0.13,VWS V14.00,2013-04-21 02:18:00,
2013-04-20 22:23:00,49.6,28.6,30.15,NNW,343,9.0,9.0,44,0.00,,---,0.13,VWS V14.00,2013-04-21 02:23:00,
2013-04-20 22:29:00,49.4,28.4,30.15,NNW,330,10.0,12.0,44,0.00,,---,0.13,VWS V14.00,2013-04-21 02:29:00,
2013-04-20 22:34:00,49.2,27.7,30.16,NNW,331,6.0,13.0,43,0.00,,---,0.13,VWS V14.00,2013-04-21 02:34:00,
2013-04-20 22:39:00,49.1,27.6,30.16,NNW,333,8.0,8.0,43,0.00,,---,0.13,VWS V14.00,2013-04-21 02:39:00,
2013-04-20 22:44:00,48.9,27.4,30.16,NNW,336,4.0,7.0,43,0.00,,---,0.13,VWS V14.00,2013-04-21 02:44:00,
2013-04-20 22:49:00,48.7,27.2,30.16,NNW,331,7.0,7.0,43,0.00,,---,0.13,VWS V14.00,2013-04-21 02:49:00,
2013-04-20 22:54:00,48.5,27.0,30.17,NW,311,7.0,9.0,43,0.00,,---,0.13,VWS V14.00,2013-04-21 02:54:00,
2013-04-20 22:59:00,48.4,27.5,30.17,NNW,330,5.0,9.0,44,0.00,,---,0.13,VWS V14.00,2013-04-21 02:59:00,
2013-04-20 23:04:00,48.1,27.2,30.18,NNW,330,6.0,10.0,44,0.00,,---,0.13,VWS V14.00,2013-04-21 03:04:00,
2013-04-20 23:09:00,47.9,27.6,30.18,NW,323,10.0,14.0,45,0.00,,---,0.13,VWS V14.00,2013-04-21 03:09:00,
2013-04-20 23:14:00,47.3,26.5,30.19,NNW,336,12.0,15.0,44,0.00,,---,0.13,VWS V14.00,2013-04-21 03:14:00,
2013-04-20 23:19:00,46.9,26.1,30.19,NW,317,13.0,21.0,44,0.00,,---,0.13,VWS V14.00,2013-04-21 03:19:00,
2013-04-20 23:24:00,46.5,25.8,30.20,WNW,290,11.0,14.0,44,0.00,,---,0.13,VWS V14.00,2013-04-21 03:24:00,
2013-04-20 23:29:00,46.1,24.9,30.20,NW,315,8.0,15.0,43,0.00,,---,0.13,VWS V14.00,2013-04-21 03:29:00,
2013-04-20 23:35:00,45.7,24.5,30.20,North,360,8.0,15.0,43,0.00,,---,0.13,VWS V14.00,2013-04-21 03:35:00,
2013-04-20 23:40:00,45.4,24.2,30.20,NNW,333,14.0,14.0,43,0.00,,---,0.13,VWS V14.00,2013-04-21 03:40:00,
2013-04-20 23:45:00,45.2,24.0,30.21,NNW,330,5.0,11.0,43,0.00,,---,0.13,VWS V14.00,2013-04-21 03:45:00,
2013-04-20 23:50:00,44.9,23.8,30.21,NW,321,5.0,13.0,43,0.00,,---,0.13,VWS V14.00,2013-04-21 03:50:00,
2013-04-20 23:55:00,44.7,23.6,30.22,NW,326,10.0,20.0,43,0.00,,---,0.13,VWS V14.00,2013-04-21 03:55:00,